createdAt,value
2019-03-20T00:01:52.604Z,5.39
2019-03-20T00:04:23.780Z,5.34
2019-03-20T00:06:55.957Z,5.42
2019-03-20T00:09:26.993Z,5.42
2019-03-20T00:11:58.141Z,5.40
2019-03-20T00:14:29.280Z,5.40
2019-03-20T00:17:00.329Z,5.35
2019-03-20T00:19:31.473Z,5.35
2019-03-20T00:22:02.598Z,5.38
2019-03-20T00:24:33.758Z,5.39
2019-03-20T00:27:04.864Z,5.31
2019-03-20T00:29:36.048Z,5.31
2019-03-20T00:32:07.186Z,5.29
2019-03-20T00:34:39.353Z,5.25
2019-03-20T00:37:10.567Z,5.23
2019-03-20T00:39:41.652Z,5.15
2019-03-20T00:42:12.772Z,5.04
2019-03-20T00:44:44.652Z,5.00
2019-03-20T00:47:15.785Z,5.02
2019-03-20T00:49:46.946Z,5.02
2019-03-20T00:52:17.974Z,4.98
2019-03-20T00:54:49.019Z,5.00
2019-03-20T00:57:20.158Z,4.80
2019-03-20T00:59:51.303Z,4.82
2019-03-20T01:02:22.448Z,4.72
2019-03-20T01:04:53.594Z,4.70
2019-03-20T01:07:25.728Z,4.63
2019-03-20T01:09:56.798Z,4.60
2019-03-20T01:12:27.943Z,4.54
2019-03-20T01:14:59.007Z,4.55
2019-03-20T01:17:30.043Z,4.55
2019-03-20T01:20:01.069Z,4.55
2019-03-20T01:22:33.238Z,4.59
2019-03-20T01:25:06.459Z,4.57
2019-03-20T01:27:37.462Z,4.59
2019-03-20T01:30:13.031Z,4.54
2019-03-20T01:32:44.158Z,4.50
2019-03-20T01:35:23.553Z,4.50
2019-03-20T01:37:47.914Z,4.47
2019-03-20T01:40:18.972Z,4.38
2019-03-20T01:42:50.080Z,4.24
2019-03-20T01:45:21.083Z,4.20
2019-03-20T01:47:52.267Z,4.25
2019-03-20T01:50:23.445Z,4.19
2019-03-20T01:52:54.431Z,4.17
2019-03-20T01:55:25.529Z,4.12
2019-03-20T01:57:56.625Z,4.10
2019-03-20T02:00:27.739Z,4.26
2019-03-20T02:02:58.812Z,4.21
2019-03-20T02:05:35.784Z,4.22
2019-03-20T02:08:03.665Z,4.22
2019-03-20T02:10:34.829Z,4.25
2019-03-20T02:13:05.844Z,4.25
2019-03-20T02:15:39.114Z,4.31
2019-03-20T02:18:09.908Z,4.13
2019-03-20T02:20:41.055Z,4.14
2019-03-20T02:23:12.164Z,4.13
2019-03-20T02:25:43.177Z,4.12
2019-03-20T02:28:14.254Z,3.98
2019-03-20T02:30:45.340Z,3.89
2019-03-20T02:33:16.502Z,3.84
2019-03-20T02:35:51.970Z,3.88
2019-03-20T02:38:20.178Z,3.80
2019-03-20T02:40:51.206Z,3.77
2019-03-20T02:43:22.181Z,3.70
2019-03-20T02:45:53.192Z,3.63
2019-03-20T02:48:24.441Z,3.56
2019-03-20T02:50:55.474Z,3.48
2019-03-20T02:53:26.621Z,3.51
2019-03-20T02:55:57.669Z,3.56
2019-03-20T02:58:29.815Z,3.57
2019-03-20T03:01:00.856Z,3.59
2019-03-20T03:03:33.035Z,3.66
2019-03-20T03:06:07.033Z,3.68
2019-03-20T03:08:37.887Z,3.52
2019-03-20T03:11:08.861Z,3.43
2019-03-20T03:13:39.961Z,3.32
2019-03-20T03:16:11.008Z,3.40
2019-03-20T03:18:42.104Z,3.34
2019-03-20T03:21:13.185Z,3.42
2019-03-20T03:23:44.197Z,3.62
2019-03-20T03:26:15.267Z,3.59
2019-03-20T03:28:46.470Z,3.56
2019-03-20T03:31:17.556Z,3.60
2019-03-20T03:33:48.645Z,3.58
2019-03-20T03:36:21.601Z,3.54
2019-03-20T03:38:52.525Z,3.48
2019-03-20T03:41:24.693Z,3.51
2019-03-20T03:43:55.854Z,3.48
2019-03-20T03:46:27.978Z,3.40
2019-03-20T03:48:59.246Z,3.46
2019-03-20T03:51:30.240Z,3.31
2019-03-20T03:54:01.392Z,3.36
2019-03-20T03:56:32.482Z,3.33
2019-03-20T03:59:03.569Z,3.30
2019-03-20T04:01:34.561Z,3.23
2019-03-20T04:04:05.650Z,3.18
2019-03-20T04:06:36.850Z,3.21
2019-03-20T04:09:07.928Z,3.20
2019-03-20T04:11:38.903Z,3.23
2019-03-20T04:14:10.020Z,3.19
2019-03-20T04:16:41.393Z,3.15
2019-03-20T04:19:12.632Z,3.19
2019-03-20T04:21:43.722Z,3.15
2019-03-20T04:24:14.897Z,3.25
2019-03-20T04:26:45.909Z,3.29
2019-03-20T04:29:17.003Z,3.24
2019-03-20T04:31:48.084Z,3.26
2019-03-20T04:34:19.173Z,3.17
2019-03-20T04:36:50.233Z,3.19
2019-03-20T04:39:21.257Z,3.32
2019-03-20T04:41:52.240Z,3.12
2019-03-20T04:44:23.225Z,3.03
2019-03-20T04:46:54.431Z,2.80
2019-03-20T04:49:25.643Z,2.48
2019-03-20T04:51:56.736Z,2.11
2019-03-20T04:54:27.982Z,1.80
2019-03-20T04:56:59.027Z,1.79
2019-03-20T04:59:30.099Z,1.72
2019-03-20T05:02:01.199Z,1.70
2019-03-20T05:04:33.430Z,1.73
2019-03-20T05:07:04.526Z,1.77
2019-03-20T05:09:35.704Z,1.71
2019-03-20T05:12:06.724Z,1.69
2019-03-20T05:14:37.890Z,1.70
2019-03-20T05:17:08.955Z,1.86
2019-03-20T05:19:40.247Z,2.08
2019-03-20T05:22:11.376Z,1.91
2019-03-20T05:24:42.465Z,1.72
2019-03-20T05:27:13.560Z,1.89
2019-03-20T05:29:44.757Z,2.00
2019-03-20T05:32:15.860Z,1.68
2019-03-20T05:34:47.043Z,1.73
2019-03-20T05:37:18.137Z,1.48
2019-03-20T05:39:49.298Z,1.56
2019-03-20T05:42:20.332Z,1.52
2019-03-20T05:44:51.414Z,1.45
2019-03-20T05:47:22.557Z,1.51
2019-03-20T05:49:53.801Z,1.38
2019-03-20T05:52:25.161Z,1.65
2019-03-20T05:54:56.358Z,1.63
2019-03-20T05:57:27.450Z,1.70
2019-03-20T05:59:59.540Z,1.88
2019-03-20T06:02:30.673Z,2.15
2019-03-20T06:05:01.733Z,1.96
2019-03-20T06:07:32.888Z,1.78
2019-03-20T06:10:09.590Z,2.03
2019-03-20T06:12:40.724Z,1.76
2019-03-20T06:15:11.808Z,1.77
2019-03-20T06:17:42.902Z,1.90
2019-03-20T06:20:14.976Z,2.30
2019-03-20T06:22:46.120Z,2.00
2019-03-20T06:25:17.559Z,1.71
2019-03-20T06:27:50.005Z,1.49
2019-03-20T06:30:21.786Z,1.90
2019-03-20T06:32:52.874Z,2.15
2019-03-20T06:35:23.865Z,2.12
2019-03-20T06:37:55.137Z,1.95
2019-03-20T06:40:26.133Z,1.92
2019-03-20T06:42:57.244Z,2.14
2019-03-20T06:45:28.902Z,2.10
2019-03-20T06:48:00.106Z,2.04
2019-03-20T06:50:31.346Z,2.09
2019-03-20T06:53:02.426Z,2.25
2019-03-20T06:55:34.602Z,2.12
2019-03-20T06:58:05.801Z,2.23
2019-03-20T07:00:45.621Z,2.23
2019-03-20T07:03:37.923Z,2.35
2019-03-20T07:06:18.041Z,2.21
2019-03-20T07:08:58.453Z,2.55
2019-03-20T07:11:28.606Z,2.38
2019-03-20T07:13:59.715Z,2.22
2019-03-20T07:16:30.818Z,2.68
2019-03-20T07:19:01.823Z,2.98
2019-03-20T07:21:32.830Z,2.68
2019-03-20T07:24:03.858Z,2.81
2019-03-20T07:26:34.992Z,3.22
2019-03-20T07:29:06.047Z,3.04
2019-03-20T07:31:37.009Z,2.85
2019-03-20T07:34:08.106Z,2.86
2019-03-20T07:36:39.360Z,2.85
2019-03-20T07:39:10.447Z,3.09
2019-03-20T07:41:41.560Z,3.28
2019-03-20T07:44:12.663Z,3.51
2019-03-20T07:46:43.647Z,3.45
2019-03-20T07:49:14.668Z,3.84
2019-03-20T07:51:45.824Z,3.26
2019-03-20T07:54:16.874Z,3.80
2019-03-20T07:56:47.995Z,3.60
2019-03-20T07:59:19.082Z,3.75
2019-03-20T08:01:50.126Z,4.22
2019-03-20T08:04:21.436Z,3.76
2019-03-20T08:06:52.842Z,3.69
2019-03-20T08:09:25.651Z,3.99
2019-03-20T08:11:56.745Z,3.52
2019-03-20T08:14:27.770Z,3.73
2019-03-20T08:16:58.741Z,3.24
2019-03-20T08:19:29.708Z,3.67
2019-03-20T08:22:00.759Z,3.77
2019-03-20T08:24:32.308Z,4.01
2019-03-20T08:27:03.369Z,4.40
2019-03-20T08:29:34.454Z,4.17
2019-03-20T08:32:05.490Z,4.05
2019-03-20T08:34:36.630Z,3.97
2019-03-20T08:37:07.735Z,4.05
2019-03-20T08:39:38.814Z,4.30
2019-03-20T08:42:09.922Z,4.72
2019-03-20T08:44:41.049Z,4.67
2019-03-20T08:47:12.083Z,4.79
2019-03-20T08:49:43.378Z,4.89
2019-03-20T08:52:14.446Z,5.03
2019-03-20T08:54:45.503Z,5.07
2019-03-20T08:57:16.685Z,5.13
2019-03-20T08:59:47.857Z,4.93
2019-03-20T09:02:18.888Z,4.73
2019-03-20T09:04:50.019Z,5.26
2019-03-20T09:07:21.058Z,5.41
2019-03-20T09:09:52.424Z,5.51
2019-03-20T09:12:23.605Z,5.69
2019-03-20T09:14:54.786Z,5.73
2019-03-20T09:17:25.826Z,6.10
2019-03-20T09:19:56.977Z,6.24
2019-03-20T09:22:28.104Z,6.24
2019-03-20T09:24:59.149Z,6.62
2019-03-20T09:27:30.317Z,6.51
2019-03-20T09:30:01.443Z,6.60
2019-03-20T09:32:32.494Z,6.68
2019-03-20T09:35:06.862Z,6.83
2019-03-20T09:37:36.939Z,6.86
2019-03-20T09:40:24.828Z,7.13
2019-03-20T09:42:56.016Z,7.24
2019-03-20T09:45:27.126Z,7.25
2019-03-20T09:47:58.407Z,7.29
2019-03-20T09:50:29.812Z,7.41
2019-03-20T09:53:00.867Z,7.47
2019-03-20T09:55:32.034Z,7.50
2019-03-20T09:58:11.191Z,7.66
2019-03-20T10:00:35.943Z,7.74
2019-03-20T10:03:07.110Z,7.75
2019-03-20T10:05:38.266Z,7.91
2019-03-20T10:08:09.317Z,7.94
2019-03-20T10:10:40.354Z,8.01
2019-03-20T10:13:11.475Z,8.12
2019-03-20T10:15:42.496Z,8.22
2019-03-20T10:18:13.604Z,8.33
2019-03-20T10:20:44.749Z,8.42
2019-03-20T10:23:16.120Z,8.54
2019-03-20T10:25:47.248Z,8.62
2019-03-20T10:28:18.327Z,8.79
2019-03-20T10:30:49.370Z,8.97
2019-03-20T10:33:20.526Z,9.11
2019-03-20T10:35:51.682Z,9.34
2019-03-20T10:38:22.698Z,9.52
2019-03-20T10:40:53.782Z,9.32
2019-03-20T10:43:24.892Z,9.46
2019-03-20T10:45:55.973Z,9.44
2019-03-20T10:48:27.178Z,9.58
2019-03-20T10:50:58.248Z,9.78
2019-03-20T10:53:29.369Z,9.80
2019-03-20T10:56:00.876Z,9.88
2019-03-20T10:58:31.991Z,9.93
2019-03-20T11:01:03.130Z,9.78
2019-03-20T11:03:35.298Z,9.79
2019-03-20T11:06:06.466Z,9.85
2019-03-20T11:08:37.569Z,9.92
2019-03-20T11:11:08.657Z,9.92
2019-03-20T11:13:39.748Z,9.98
2019-03-20T11:16:10.925Z,10.05
2019-03-20T11:18:42.126Z,10.15
2019-03-20T11:21:13.296Z,10.17
2019-03-20T11:23:44.433Z,10.29
2019-03-20T11:26:15.541Z,10.52
2019-03-20T11:28:46.621Z,10.47
2019-03-20T11:31:17.672Z,10.56
2019-03-20T11:33:48.668Z,10.67
2019-03-20T11:36:19.663Z,10.61
2019-03-20T11:38:50.723Z,10.54
2019-03-20T11:41:21.831Z,10.57
2019-03-20T11:43:52.940Z,10.66
2019-03-20T11:46:24.402Z,10.71
2019-03-20T11:48:55.390Z,10.67
2019-03-20T11:51:26.450Z,10.71
2019-03-20T11:53:57.557Z,10.87
2019-03-20T11:56:29.004Z,10.99
2019-03-20T11:59:00.061Z,11.07
2019-03-20T12:01:31.254Z,10.99
2019-03-20T12:04:02.317Z,10.90
2019-03-20T12:06:33.296Z,10.92
2019-03-20T12:09:07.526Z,10.79
2019-03-20T12:11:45.739Z,10.82
2019-03-20T12:14:11.540Z,10.97
2019-03-20T12:16:42.594Z,11.07
2019-03-20T12:19:13.772Z,11.15
2019-03-20T12:21:44.937Z,11.27
2019-03-20T12:24:16.083Z,11.33
2019-03-20T12:26:47.275Z,11.27
2019-03-20T12:29:18.367Z,11.43
2019-03-20T12:31:49.416Z,11.60
2019-03-20T12:34:20.603Z,11.62
2019-03-20T12:36:51.910Z,11.66
2019-03-20T12:39:22.981Z,11.54
2019-03-20T12:41:54.059Z,11.56
2019-03-20T12:44:25.194Z,11.48
2019-03-20T12:46:56.282Z,11.61
2019-03-20T12:49:27.363Z,11.68
2019-03-20T12:51:58.468Z,11.68
2019-03-20T12:54:29.445Z,11.70
2019-03-20T12:57:00.693Z,11.59
2019-03-20T12:59:31.833Z,11.61
2019-03-20T13:02:02.820Z,11.66
2019-03-20T13:04:34.005Z,11.57
2019-03-20T13:07:05.187Z,11.52
2019-03-20T13:09:36.296Z,11.51
2019-03-20T13:12:07.415Z,11.42
2019-03-20T13:14:40.906Z,11.42
2019-03-20T13:17:11.858Z,11.39
2019-03-20T13:19:43.065Z,11.43
2019-03-20T13:22:14.138Z,11.51
2019-03-20T13:24:47.778Z,11.50
2019-03-20T13:27:21.024Z,11.48
2019-03-20T13:29:52.083Z,11.47
2019-03-20T13:32:23.276Z,11.46
2019-03-20T13:34:54.371Z,11.40
2019-03-20T13:37:25.422Z,11.34
2019-03-20T13:39:56.515Z,11.43
2019-03-20T13:42:27.598Z,11.52
2019-03-20T13:44:58.790Z,11.44
2019-03-20T13:47:29.988Z,11.50
2019-03-20T13:50:01.199Z,11.50
2019-03-20T13:52:32.337Z,11.59
2019-03-20T13:55:04.287Z,11.55
2019-03-20T13:57:35.663Z,11.49
2019-03-20T14:00:16.129Z,11.63
2019-03-20T14:02:47.298Z,11.50
2019-03-20T14:05:18.376Z,11.48
2019-03-20T14:07:49.380Z,11.49
2019-03-20T14:10:25.678Z,11.59
2019-03-20T14:12:56.864Z,11.73
2019-03-20T14:15:28.087Z,11.64
2019-03-20T14:17:59.163Z,11.51
2019-03-20T14:20:31.093Z,11.62
2019-03-20T14:23:02.131Z,11.55
2019-03-20T14:25:33.161Z,11.46
2019-03-20T14:28:04.331Z,11.62
2019-03-20T14:30:35.392Z,11.50
2019-03-20T14:33:06.512Z,11.48
2019-03-20T14:35:37.982Z,11.57
2019-03-20T14:38:09.144Z,11.43
2019-03-20T14:40:40.235Z,11.45
2019-03-20T14:43:11.278Z,11.53
2019-03-20T14:45:42.296Z,11.43
2019-03-20T14:48:13.558Z,11.49
2019-03-20T14:50:44.844Z,11.37
2019-03-20T14:53:17.049Z,11.27
2019-03-20T14:55:48.214Z,11.24
2019-03-20T14:58:19.441Z,11.24
2019-03-20T15:00:50.857Z,11.26
2019-03-20T15:03:22.163Z,11.21
2019-03-20T15:05:53.666Z,11.14
2019-03-20T15:08:25.166Z,11.06
2019-03-20T15:10:56.312Z,11.13
2019-03-20T15:13:27.828Z,11.12
2019-03-20T15:16:07.821Z,11.06
2019-03-20T15:18:38.983Z,11.04
2019-03-20T15:21:11.136Z,11.22
2019-03-20T15:23:42.127Z,11.42
2019-03-20T15:26:13.314Z,11.69
2019-03-20T15:28:44.441Z,11.68
2019-03-20T15:31:17.214Z,11.72
2019-03-20T15:33:48.309Z,11.58
2019-03-20T15:36:19.559Z,11.51
2019-03-20T15:38:50.930Z,11.43
2019-03-20T15:41:21.887Z,11.32
2019-03-20T15:44:02.104Z,11.28
2019-03-20T15:46:25.831Z,11.24
2019-03-20T15:48:56.954Z,11.16
2019-03-20T15:51:28.049Z,11.19
2019-03-20T15:53:59.067Z,11.02
2019-03-20T15:56:30.147Z,11.01
2019-03-20T15:59:01.290Z,10.83
2019-03-20T16:01:32.484Z,10.71
2019-03-20T16:04:04.446Z,10.58
2019-03-20T16:06:35.490Z,10.51
2019-03-20T16:09:08.526Z,10.42
2019-03-20T16:11:39.655Z,10.34
2019-03-20T16:14:10.988Z,10.23
2019-03-20T16:16:42.133Z,10.22
2019-03-20T16:19:13.237Z,10.16
2019-03-20T16:21:44.425Z,10.12
2019-03-20T16:24:15.568Z,10.06
2019-03-20T16:26:46.581Z,10.06
2019-03-20T16:29:17.729Z,9.94
2019-03-20T16:31:48.758Z,9.93
2019-03-20T16:34:19.805Z,9.91
2019-03-20T16:36:50.872Z,9.89
2019-03-20T16:39:22.116Z,9.79
2019-03-20T16:41:53.241Z,9.83
2019-03-20T16:44:24.215Z,9.74
2019-03-20T16:46:55.366Z,9.64
2019-03-20T16:49:26.455Z,9.69
2019-03-20T16:51:58.620Z,9.58
2019-03-20T16:54:29.660Z,9.58
2019-03-20T16:57:00.820Z,9.63
2019-03-20T16:59:32.481Z,9.45
2019-03-20T17:02:03.625Z,9.40
2019-03-20T17:04:34.957Z,9.43
2019-03-20T17:07:06.611Z,9.33
2019-03-20T17:09:37.902Z,9.29
2019-03-20T17:12:09.017Z,9.24
2019-03-20T17:14:41.734Z,9.14
2019-03-20T17:17:14.104Z,9.10
2019-03-20T17:19:45.158Z,9.05
2019-03-20T17:22:16.447Z,9.05
2019-03-20T17:24:47.642Z,8.95
2019-03-20T17:27:18.790Z,8.80
2019-03-20T17:29:50.015Z,8.77
2019-03-20T17:32:21.449Z,8.79
2019-03-20T17:34:52.445Z,8.72
2019-03-20T17:37:23.595Z,8.79
2019-03-20T17:39:54.654Z,8.75
2019-03-20T17:42:25.938Z,8.69
2019-03-20T17:44:56.943Z,8.65
2019-03-20T17:47:27.973Z,8.57
2019-03-20T17:49:59.137Z,8.46
2019-03-20T17:52:31.184Z,8.42
2019-03-20T17:55:02.271Z,8.40
2019-03-20T17:57:33.267Z,8.39
2019-03-20T18:00:13.149Z,8.39
2019-03-20T18:02:44.292Z,8.32
2019-03-20T18:05:15.450Z,8.33
2019-03-20T18:07:46.566Z,8.13
2019-03-20T18:10:17.784Z,8.27
2019-03-20T18:12:48.845Z,8.17
2019-03-20T18:15:21.032Z,8.08
2019-03-20T18:17:52.123Z,8.07
2019-03-20T18:20:23.090Z,8.02
2019-03-20T18:22:54.109Z,7.76
2019-03-20T18:25:25.297Z,7.75
2019-03-20T18:27:56.549Z,7.70
2019-03-20T18:30:32.593Z,7.62
2019-03-20T18:33:04.692Z,7.68
2019-03-20T18:35:35.745Z,7.61
2019-03-20T18:38:07.559Z,7.46
2019-03-20T18:40:38.640Z,7.53
2019-03-20T18:43:09.784Z,7.46
2019-03-20T18:45:40.921Z,7.43
2019-03-20T18:48:12.038Z,7.46
2019-03-20T18:50:44.140Z,7.37
2019-03-20T18:53:15.215Z,7.36
2019-03-20T18:55:46.601Z,7.31
2019-03-20T18:58:17.882Z,7.34
2019-03-20T19:00:48.989Z,7.41
2019-03-20T19:03:26.507Z,7.24
2019-03-20T19:06:06.827Z,7.16
2019-03-20T19:08:37.971Z,7.15
2019-03-20T19:11:09.112Z,7.16
2019-03-20T19:13:40.252Z,7.16
2019-03-20T19:16:11.473Z,7.09
2019-03-20T19:18:42.556Z,7.00
2019-03-20T19:21:13.694Z,7.05
2019-03-20T19:23:44.728Z,6.94
2019-03-20T19:26:15.820Z,6.90
2019-03-20T19:28:46.922Z,6.90
2019-03-20T19:31:18.041Z,6.89
2019-03-20T19:33:49.152Z,6.79
2019-03-20T19:36:20.133Z,6.74
2019-03-20T19:38:51.197Z,6.74
2019-03-20T19:41:22.399Z,6.77
2019-03-20T19:43:54.345Z,6.72
2019-03-20T19:46:25.418Z,6.72
2019-03-20T19:48:57.597Z,6.72
2019-03-20T19:51:28.635Z,6.80
2019-03-20T19:53:59.625Z,6.77
2019-03-20T19:56:30.736Z,6.82
2019-03-20T19:59:02.785Z,6.68
2019-03-20T20:01:33.826Z,6.68
2019-03-20T20:04:04.973Z,6.71
2019-03-20T20:06:36.261Z,6.70
2019-03-20T20:09:07.701Z,6.62
2019-03-20T20:11:38.760Z,6.65
2019-03-20T20:14:10.140Z,6.67
2019-03-20T20:16:41.307Z,6.62
2019-03-20T20:19:12.347Z,6.67
2019-03-20T20:21:43.467Z,6.66
2019-03-20T20:24:14.637Z,6.66
2019-03-20T20:26:45.762Z,6.68
2019-03-20T20:29:16.935Z,6.72
2019-03-20T20:31:47.845Z,6.60
2019-03-20T20:34:18.805Z,6.58
2019-03-20T20:36:49.959Z,6.56
2019-03-20T20:39:20.960Z,6.56
2019-03-20T20:41:51.993Z,6.52
2019-03-20T20:44:22.978Z,6.59
2019-03-20T20:46:53.989Z,6.63
2019-03-20T20:49:25.058Z,6.61
2019-03-20T20:51:56.207Z,6.61
2019-03-20T20:54:27.335Z,6.64
2019-03-20T20:56:58.499Z,6.64
2019-03-20T20:59:30.635Z,6.62
2019-03-20T21:02:01.778Z,6.46
2019-03-20T21:04:33.028Z,6.46
2019-03-20T21:07:04.109Z,6.54
2019-03-20T21:09:35.219Z,6.59
2019-03-20T21:12:06.350Z,6.64
2019-03-20T21:14:37.433Z,6.57
2019-03-20T21:17:12.117Z,6.59
2019-03-20T21:19:43.164Z,6.39
2019-03-20T21:22:32.537Z,6.39
2019-03-20T21:25:03.771Z,6.56
2019-03-20T21:28:11.189Z,6.44
2019-03-20T21:30:56.852Z,6.47
2019-03-20T21:33:36.789Z,6.30
2019-03-20T21:36:44.582Z,6.38
2019-03-20T21:39:15.841Z,6.51
2019-03-20T21:42:21.343Z,6.51
2019-03-20T21:45:10.037Z,6.26
2019-03-20T21:47:41.142Z,6.27
2019-03-20T21:50:21.535Z,6.32
2019-03-20T21:52:52.966Z,6.37
2019-03-20T21:55:46.683Z,6.32
2019-03-20T21:58:21.126Z,6.39
2019-03-20T22:01:27.005Z,6.29
2019-03-20T22:03:58.023Z,6.29
2019-03-20T22:06:35.499Z,6.28
2019-03-20T22:09:09.143Z,6.28
2019-03-20T22:12:12.239Z,6.08
2019-03-20T22:14:46.217Z,6.16
2019-03-20T22:17:26.225Z,6.25
2019-03-20T22:20:03.229Z,6.13
2019-03-20T22:23:01.089Z,6.23
2019-03-20T22:25:41.706Z,6.16
2019-03-20T22:28:35.310Z,6.16
2019-03-20T22:31:06.432Z,6.18
2019-03-20T22:34:14.520Z,6.11
2019-03-20T22:36:45.584Z,6.03
2019-03-20T22:39:48.781Z,6.02
2019-03-20T22:42:25.700Z,6.13
2019-03-20T22:45:12.039Z,6.15
2019-03-20T22:48:02.642Z,6.11
2019-03-20T22:50:55.048Z,6.17
2019-03-20T22:54:02.513Z,6.09
2019-03-20T22:56:45.602Z,6.00
2019-03-20T22:59:16.722Z,6.13
2019-03-20T23:02:06.245Z,6.13
2019-03-20T23:04:52.621Z,6.02
2019-03-20T23:07:23.886Z,6.02
2019-03-20T23:09:55.040Z,5.98
2019-03-20T23:12:25.930Z,5.98
2019-03-20T23:14:57.178Z,5.88
2019-03-20T23:17:28.136Z,5.95
2019-03-20T23:19:59.112Z,6.02
2019-03-20T23:22:30.103Z,5.86
2019-03-20T23:25:01.271Z,5.86
2019-03-20T23:27:32.287Z,5.92
2019-03-20T23:30:04.791Z,5.95
2019-03-20T23:32:35.795Z,5.89
2019-03-20T23:35:08.382Z,5.89
2019-03-20T23:37:39.494Z,5.92
2019-03-20T23:40:15.531Z,5.97
2019-03-20T23:42:52.568Z,5.98
2019-03-20T23:45:23.547Z,5.79
2019-03-20T23:48:01.835Z,5.79
2019-03-20T23:50:32.880Z,5.79
2019-03-20T23:53:03.996Z,5.79
2019-03-20T23:55:35.144Z,5.83
2019-03-20T23:58:06.268Z,5.67
